createdAt,value
2017-09-05T00:00:11.548Z,1011.3
2017-09-05T00:01:13.973Z,1011.3
2017-09-05T00:02:16.389Z,1011.3
2017-09-05T00:03:18.802Z,1011.3
2017-09-05T00:04:21.218Z,1011.3
2017-09-05T00:05:23.643Z,1011.3
2017-09-05T00:06:26.062Z,1011.3
2017-09-05T00:07:28.486Z,1011.3
2017-09-05T00:08:30.916Z,1011.2
2017-09-05T00:09:33.337Z,1011.2
2017-09-05T00:10:35.752Z,1011.2
2017-09-05T00:11:38.179Z,1011.2
2017-09-05T00:12:40.598Z,1011.2
2017-09-05T00:13:43.023Z,1011.2
2017-09-05T00:14:45.453Z,1011.2
2017-09-05T00:15:47.862Z,1011.2
2017-09-05T00:16:50.279Z,1011.2
2017-09-05T00:17:52.716Z,1011.2
2017-09-05T00:18:55.138Z,1011.2
2017-09-05T00:19:57.555Z,1011.2
2017-09-05T00:20:59.985Z,1011.2
2017-09-05T00:22:02.411Z,1011.2
2017-09-05T00:23:04.825Z,1011.2
2017-09-05T00:24:07.245Z,1011.2
2017-09-05T00:25:09.667Z,1011.2
2017-09-05T00:26:12.092Z,1011.2
2017-09-05T00:27:14.522Z,1011.2
2017-09-05T00:28:16.943Z,1011.2
2017-09-05T00:29:19.360Z,1011.2
2017-09-05T00:30:21.782Z,1011.2
2017-09-05T00:31:24.201Z,1011.2
2017-09-05T00:32:26.627Z,1011.2
2017-09-05T00:33:29.044Z,1011.2
2017-09-05T00:34:31.461Z,1011.2
2017-09-05T00:35:33.891Z,1011.2
2017-09-05T00:36:36.313Z,1011.2
2017-09-05T00:37:38.741Z,1011.3
2017-09-05T00:38:41.165Z,1011.2
2017-09-05T00:39:43.596Z,1011.2
2017-09-05T00:40:46.015Z,1011.2
2017-09-05T00:41:48.774Z,1011.2
2017-09-05T00:42:51.193Z,1011.2
2017-09-05T00:43:53.624Z,1011.2
2017-09-05T00:44:56.034Z,1011.2
2017-09-05T00:45:58.456Z,1011.1
2017-09-05T00:47:00.876Z,1011.1
2017-09-05T00:48:03.301Z,1011.1
2017-09-05T00:49:05.728Z,1011.1
2017-09-05T00:50:08.155Z,1011.1
2017-09-05T00:51:10.562Z,1011.2
2017-09-05T00:52:12.992Z,1011.2
2017-09-05T00:53:15.405Z,1011.2
2017-09-05T00:54:18.168Z,1011.2
2017-09-05T00:55:20.596Z,1011.2
2017-09-05T00:56:23.013Z,1011.2
2017-09-05T00:57:25.433Z,1011.2
2017-09-05T00:58:27.857Z,1011.1
2017-09-05T00:59:30.288Z,1011.1
2017-09-05T01:00:32.713Z,1011.1
2017-09-05T01:01:35.135Z,1011.1
2017-09-05T01:02:37.549Z,1011.2
2017-09-05T01:03:39.978Z,1011.2
2017-09-05T01:04:42.401Z,1011.2
2017-09-05T01:05:44.851Z,1011.2
2017-09-05T01:06:47.266Z,1011.2
2017-09-05T01:07:49.682Z,1011.2
2017-09-05T01:08:52.097Z,1011.2
2017-09-05T01:09:54.529Z,1011.1
2017-09-05T01:10:56.948Z,1011.1
2017-09-05T01:11:59.371Z,1011.1
2017-09-05T01:13:01.793Z,1011.1
2017-09-05T01:14:04.212Z,1011.2
2017-09-05T01:15:06.635Z,1011.1
2017-09-05T01:16:09.058Z,1011.1
2017-09-05T01:17:11.472Z,1011.2
2017-09-05T01:18:13.893Z,1011.2
2017-09-05T01:19:16.322Z,1011.2
2017-09-05T01:20:18.742Z,1011.2
2017-09-05T01:21:21.512Z,1011.2
2017-09-05T01:22:23.929Z,1011.2
2017-09-05T01:23:26.353Z,1011.2
2017-09-05T01:24:28.774Z,1011.2
2017-09-05T01:25:31.197Z,1011.2
2017-09-05T01:26:33.612Z,1011.1
2017-09-05T01:27:36.029Z,1011.2
2017-09-05T01:28:38.455Z,1011.2
2017-09-05T01:29:40.876Z,1011.1
2017-09-05T01:30:43.299Z,1011.1
2017-09-05T01:31:45.721Z,1011.2
2017-09-05T01:32:48.139Z,1011.1
2017-09-05T01:33:50.568Z,1011.1
2017-09-05T01:34:52.995Z,1011.1
2017-09-05T01:35:55.405Z,1011.1
2017-09-05T01:36:57.838Z,1011.1
2017-09-05T01:38:00.257Z,1011.1
2017-09-05T01:39:02.670Z,1011.1
2017-09-05T01:40:05.088Z,1011.1
2017-09-05T01:41:07.522Z,1011.1
2017-09-05T01:42:09.945Z,1011.1
2017-09-05T01:43:12.363Z,1011.1
2017-09-05T01:44:14.785Z,1011.1
2017-09-05T01:45:17.211Z,1011.1
2017-09-05T01:46:19.637Z,1011.1
2017-09-05T01:47:22.056Z,1011
2017-09-05T01:48:24.466Z,1011.1
2017-09-05T01:49:26.884Z,1011.1
2017-09-05T01:50:29.317Z,1011
2017-09-05T01:51:31.731Z,1011
2017-09-05T01:52:34.151Z,1011
2017-09-05T01:53:36.902Z,1011
2017-09-05T01:54:39.321Z,1011.1
2017-09-05T01:55:41.745Z,1011.1
2017-09-05T01:56:44.164Z,1011.1
2017-09-05T01:57:46.578Z,1011.1
2017-09-05T01:58:49.009Z,1011.1
2017-09-05T01:59:51.427Z,1011
2017-09-05T02:00:53.853Z,1011.1
2017-09-05T02:01:56.285Z,1011.1
2017-09-05T02:02:59.045Z,1011.1
2017-09-05T02:04:01.813Z,1011
2017-09-05T02:05:04.236Z,1011.1
2017-09-05T02:06:06.664Z,1011.1
2017-09-05T02:07:09.075Z,1011.1
2017-09-05T02:08:11.836Z,1011
2017-09-05T02:09:14.259Z,1011
2017-09-05T02:10:16.674Z,1011
2017-09-05T02:11:19.097Z,1011
2017-09-05T02:12:21.529Z,1011
2017-09-05T02:13:23.941Z,1011
2017-09-05T02:14:26.373Z,1011
2017-09-05T02:15:28.799Z,1011
2017-09-05T02:16:31.216Z,1011
2017-09-05T02:17:33.637Z,1011
2017-09-05T02:18:36.099Z,1011
2017-09-05T02:19:38.476Z,1011
2017-09-05T02:20:40.894Z,1011
2017-09-05T02:21:43.315Z,1011
2017-09-05T02:22:45.732Z,1010.9
2017-09-05T02:23:48.500Z,1011
2017-09-05T02:24:50.918Z,1010.9
2017-09-05T02:25:53.344Z,1010.9
2017-09-05T02:26:55.765Z,1010.9
2017-09-05T02:27:58.190Z,1010.9
2017-09-05T02:29:00.612Z,1010.9
2017-09-05T02:30:03.035Z,1011
2017-09-05T02:31:05.452Z,1011
2017-09-05T02:32:08.217Z,1011
2017-09-05T02:33:10.638Z,1011
2017-09-05T02:34:13.057Z,1011
2017-09-05T02:35:15.470Z,1010.9
2017-09-05T02:36:17.894Z,1011
2017-09-05T02:37:20.315Z,1011
2017-09-05T02:38:22.734Z,1010.9
2017-09-05T02:39:25.495Z,1010.9
2017-09-05T02:40:27.929Z,1010.9
2017-09-05T02:41:30.350Z,1010.9
2017-09-05T02:42:32.774Z,1010.9
2017-09-05T02:43:35.193Z,1011
2017-09-05T02:44:37.616Z,1011
2017-09-05T02:45:40.037Z,1011
2017-09-05T02:46:42.464Z,1010.9
2017-09-05T02:47:44.884Z,1011
2017-09-05T02:48:47.306Z,1010.9
2017-09-05T02:49:49.727Z,1010.9
2017-09-05T02:50:52.149Z,1010.9
2017-09-05T02:51:54.568Z,1010.9
2017-09-05T02:52:57.332Z,1010.9
2017-09-05T02:53:59.756Z,1010.9
2017-09-05T02:55:02.173Z,1010.9
2017-09-05T02:56:04.599Z,1010.9
2017-09-05T02:57:07.022Z,1010.9
2017-09-05T02:58:09.452Z,1010.9
2017-09-05T02:59:12.200Z,1010.9
2017-09-05T03:00:14.623Z,1010.9
2017-09-05T03:01:17.042Z,1010.9
2017-09-05T03:02:19.810Z,1010.9
2017-09-05T03:03:22.233Z,1010.9
2017-09-05T03:04:24.645Z,1011
2017-09-05T03:05:27.062Z,1011
2017-09-05T03:06:29.488Z,1011
2017-09-05T03:07:31.904Z,1011
2017-09-05T03:08:34.321Z,1011
2017-09-05T03:09:36.745Z,1011
2017-09-05T03:10:39.162Z,1010.9
2017-09-05T03:11:41.586Z,1011
2017-09-05T03:12:44.013Z,1011
2017-09-05T03:13:46.433Z,1011
2017-09-05T03:14:48.854Z,1011
2017-09-05T03:15:51.270Z,1011
2017-09-05T03:16:53.690Z,1011
2017-09-05T03:17:56.110Z,1011
2017-09-05T03:18:58.533Z,1010.9
2017-09-05T03:20:00.942Z,1011
2017-09-05T03:21:03.381Z,1010.9
2017-09-05T03:22:06.486Z,1010.9
2017-09-05T03:23:08.905Z,1010.9
2017-09-05T03:24:11.324Z,1010.9
2017-09-05T03:25:13.747Z,1011
2017-09-05T03:26:16.161Z,1011
2017-09-05T03:27:18.581Z,1010.9
2017-09-05T03:28:21.002Z,1011
2017-09-05T03:29:23.421Z,1010.9
2017-09-05T03:30:25.841Z,1010.9
2017-09-05T03:31:28.266Z,1010.9
2017-09-05T03:32:30.687Z,1010.9
2017-09-05T03:33:33.114Z,1010.9
2017-09-05T03:34:35.532Z,1010.9
2017-09-05T03:35:37.958Z,1010.9
2017-09-05T03:36:40.377Z,1011
2017-09-05T03:37:42.799Z,1011
2017-09-05T03:38:45.222Z,1011
2017-09-05T03:39:47.632Z,1011
2017-09-05T03:40:50.055Z,1011
2017-09-05T03:41:52.823Z,1011
2017-09-05T03:42:55.391Z,1011
2017-09-05T03:43:57.813Z,1011
2017-09-05T03:45:00.227Z,1010.9
2017-09-05T03:46:02.985Z,1010.9
2017-09-05T03:47:05.410Z,1010.9
2017-09-05T03:48:07.835Z,1010.9
2017-09-05T03:49:10.246Z,1010.9
2017-09-05T03:50:12.674Z,1010.8
2017-09-05T03:51:15.097Z,1010.8
2017-09-05T03:52:17.519Z,1010.8
2017-09-05T03:53:19.945Z,1010.8
2017-09-05T03:54:22.357Z,1010.8
2017-09-05T03:55:24.774Z,1010.8
2017-09-05T03:56:27.201Z,1010.8
2017-09-05T03:57:29.624Z,1010.8
2017-09-05T03:58:32.043Z,1010.8
2017-09-05T03:59:34.465Z,1010.8
2017-09-05T04:00:36.882Z,1010.9
2017-09-05T04:01:39.309Z,1010.8
2017-09-05T04:02:41.731Z,1010.9
2017-09-05T04:03:44.475Z,1010.8
2017-09-05T04:04:46.894Z,1010.9
2017-09-05T04:05:49.328Z,1010.9
2017-09-05T04:06:51.748Z,1010.8
2017-09-05T04:07:54.170Z,1010.8
2017-09-05T04:08:56.582Z,1010.9
2017-09-05T04:09:59.009Z,1010.9
2017-09-05T04:11:01.430Z,1010.9
2017-09-05T04:12:03.853Z,1010.9
2017-09-05T04:13:06.267Z,1010.9
2017-09-05T04:14:08.681Z,1011
2017-09-05T04:15:11.111Z,1011
2017-09-05T04:16:13.539Z,1011
2017-09-05T04:17:15.961Z,1011
2017-09-05T04:18:18.380Z,1011.1
2017-09-05T04:19:20.800Z,1011
2017-09-05T04:20:23.230Z,1011.1
2017-09-05T04:21:25.647Z,1011.1
2017-09-05T04:22:28.065Z,1011.1
2017-09-05T04:23:30.486Z,1011.1
2017-09-05T04:24:32.907Z,1011.1
2017-09-05T04:25:35.336Z,1011.2
2017-09-05T04:26:37.762Z,1011.2
2017-09-05T04:27:40.170Z,1011.2
2017-09-05T04:28:42.953Z,1011.1
2017-09-05T04:29:45.732Z,1011.2
2017-09-05T04:30:48.153Z,1011.2
2017-09-05T04:31:50.578Z,1011.1
2017-09-05T04:32:52.996Z,1011.1
2017-09-05T04:33:55.412Z,1011.1
2017-09-05T04:34:57.835Z,1011.1
2017-09-05T04:36:00.259Z,1011.1
2017-09-05T04:37:02.690Z,1011.1
2017-09-05T04:38:05.108Z,1011.1
2017-09-05T04:39:07.523Z,1011.1
2017-09-05T04:40:09.941Z,1011.1
2017-09-05T04:41:12.361Z,1011.1
2017-09-05T04:42:14.787Z,1011.2
2017-09-05T04:43:17.205Z,1011.2
2017-09-05T04:44:19.626Z,1011.2
2017-09-05T04:45:22.045Z,1011.2
2017-09-05T04:46:24.463Z,1011.2
2017-09-05T04:47:26.883Z,1011.1
2017-09-05T04:48:29.300Z,1011.2
2017-09-05T04:49:31.721Z,1011.1
2017-09-05T04:50:34.486Z,1011.2
2017-09-05T04:51:36.921Z,1011.1
2017-09-05T04:52:39.330Z,1011.2
2017-09-05T04:53:41.753Z,1011.2
2017-09-05T04:54:44.177Z,1011.2
2017-09-05T04:55:46.605Z,1011.2
2017-09-05T04:56:49.033Z,1011.2
2017-09-05T04:57:51.452Z,1011.2
2017-09-05T04:58:53.872Z,1011.2
2017-09-05T04:59:56.298Z,1011.2
2017-09-05T05:00:58.725Z,1011.2
2017-09-05T05:02:01.142Z,1011.2
2017-09-05T05:03:03.556Z,1011.3
2017-09-05T05:04:05.978Z,1011.3
2017-09-05T05:05:08.407Z,1011.3
2017-09-05T05:06:11.176Z,1011.3
2017-09-05T05:07:13.606Z,1011.3
2017-09-05T05:08:16.023Z,1011.3
2017-09-05T05:09:18.443Z,1011.4
2017-09-05T05:10:20.867Z,1011.4
2017-09-05T05:11:23.290Z,1011.3
2017-09-05T05:12:25.718Z,1011.3
2017-09-05T05:13:28.138Z,1011.3
2017-09-05T05:14:30.559Z,1011.3
2017-09-05T05:15:32.984Z,1011.3
2017-09-05T05:16:35.410Z,1011.3
2017-09-05T05:17:37.830Z,1011.3
2017-09-05T05:18:40.255Z,1011.3
2017-09-05T05:19:42.677Z,1011.4
2017-09-05T05:20:45.100Z,1011.4
2017-09-05T05:21:47.520Z,1011.4
2017-09-05T05:22:49.943Z,1011.4
2017-09-05T05:23:52.367Z,1011.4
2017-09-05T05:24:54.796Z,1011.4
2017-09-05T05:25:57.220Z,1011.5
2017-09-05T05:26:59.646Z,1011.5
2017-09-05T05:28:02.063Z,1011.4
2017-09-05T05:29:04.484Z,1011.4
2017-09-05T05:30:06.910Z,1011.4
2017-09-05T05:31:09.333Z,1011.4
2017-09-05T05:32:11.757Z,1011.4
2017-09-05T05:33:14.183Z,1011.4
2017-09-05T05:34:16.616Z,1011.5
2017-09-05T05:35:19.033Z,1011.4
2017-09-05T05:36:21.459Z,1011.5
2017-09-05T05:37:24.212Z,1011.5
2017-09-05T05:38:26.641Z,1011.4
2017-09-05T05:39:29.066Z,1011.4
2017-09-05T05:40:31.489Z,1011.4
2017-09-05T05:41:33.920Z,1011.4
2017-09-05T05:42:36.345Z,1011.4
2017-09-05T05:43:38.767Z,1011.4
2017-09-05T05:44:41.200Z,1011.4
2017-09-05T05:45:43.957Z,1011.4
2017-09-05T05:46:46.378Z,1011.4
2017-09-05T05:47:48.800Z,1011.4
2017-09-05T05:48:51.223Z,1011.4
2017-09-05T05:49:53.647Z,1011.5
2017-09-05T05:50:56.065Z,1011.5
2017-09-05T05:51:58.484Z,1011.5
2017-09-05T05:53:00.915Z,1011.5
2017-09-05T05:54:03.335Z,1011.6
2017-09-05T05:55:05.764Z,1011.5
2017-09-05T05:56:08.191Z,1011.6
2017-09-05T05:57:10.612Z,1011.5
2017-09-05T05:58:13.033Z,1011.6
2017-09-05T05:59:15.461Z,1011.6
2017-09-05T06:00:17.874Z,1011.6
2017-09-05T06:01:20.303Z,1011.6
2017-09-05T06:02:22.732Z,1011.6
2017-09-05T06:03:25.158Z,1011.6
2017-09-05T06:04:27.577Z,1011.6
2017-09-05T06:05:30.007Z,1011.6
2017-09-05T06:06:32.767Z,1011.6
2017-09-05T06:07:35.183Z,1011.6
2017-09-05T06:08:37.609Z,1011.6
2017-09-05T06:09:40.387Z,1011.6
2017-09-05T06:10:42.807Z,1011.6
2017-09-05T06:11:45.239Z,1011.6
2017-09-05T06:12:47.656Z,1011.6
2017-09-05T06:13:50.085Z,1011.6
2017-09-05T06:14:52.510Z,1011.6
2017-09-05T06:15:54.933Z,1011.6
2017-09-05T06:16:57.350Z,1011.6
2017-09-05T06:17:59.776Z,1011.5
2017-09-05T06:19:02.199Z,1011.5
2017-09-05T06:20:04.628Z,1011.5
2017-09-05T06:21:07.049Z,1011.5
2017-09-05T06:22:09.468Z,1011.5
2017-09-05T06:23:11.890Z,1011.5
2017-09-05T06:24:14.327Z,1011.6
2017-09-05T06:25:16.739Z,1011.5
2017-09-05T06:26:19.166Z,1011.5
2017-09-05T06:27:21.934Z,1011.5
2017-09-05T06:28:24.361Z,1011.5
2017-09-05T06:29:26.786Z,1011.5
2017-09-05T06:30:29.213Z,1011.5
2017-09-05T06:31:31.631Z,1011.5
2017-09-05T06:32:34.050Z,1011.5
2017-09-05T06:33:36.475Z,1011.5
2017-09-05T06:34:38.899Z,1011.5
2017-09-05T06:35:41.318Z,1011.5
2017-09-05T06:36:43.747Z,1011.6
2017-09-05T06:37:46.180Z,1011.5
2017-09-05T06:38:48.604Z,1011.6
2017-09-05T06:39:51.032Z,1011.5
2017-09-05T06:40:53.456Z,1011.5
2017-09-05T06:41:55.879Z,1011.5
2017-09-05T06:42:58.316Z,1011.5
2017-09-05T06:44:00.742Z,1011.5
2017-09-05T06:45:03.167Z,1011.4
2017-09-05T06:46:05.596Z,1011.4
2017-09-05T06:47:08.025Z,1011.4
2017-09-05T06:48:10.451Z,1011.4
2017-09-05T06:49:12.883Z,1011.4
2017-09-05T06:50:15.301Z,1011.4
2017-09-05T06:51:17.727Z,1011.4
2017-09-05T06:52:20.151Z,1011.3
2017-09-05T06:53:22.574Z,1011.4
2017-09-05T06:54:25.000Z,1011.4
2017-09-05T06:55:27.427Z,1011.3
2017-09-05T06:56:30.195Z,1011.3
2017-09-05T06:57:32.634Z,1011.3
2017-09-05T06:58:35.066Z,1011.4
2017-09-05T06:59:37.494Z,1011.3
2017-09-05T07:00:39.928Z,1011.4
2017-09-05T07:01:42.363Z,1011.3
2017-09-05T07:02:44.787Z,1011.3
2017-09-05T07:03:47.209Z,1011.3
2017-09-05T07:04:49.646Z,1011.3
2017-09-05T07:05:52.062Z,1011.3
2017-09-05T07:06:54.492Z,1011.3
2017-09-05T07:07:56.922Z,1011.3
2017-09-05T07:08:59.350Z,1011.3
2017-09-05T07:10:01.781Z,1011.3
2017-09-05T07:11:04.208Z,1011.3
2017-09-05T07:12:06.634Z,1011.3
2017-09-05T07:13:09.061Z,1011.3
2017-09-05T07:14:11.842Z,1011.3
2017-09-05T07:15:14.275Z,1011.3
2017-09-05T07:16:16.702Z,1011.3
2017-09-05T07:17:19.138Z,1011.3
2017-09-05T07:18:21.559Z,1011.3
2017-09-05T07:19:23.993Z,1011.2
2017-09-05T07:20:26.765Z,1011.3
2017-09-05T07:21:29.190Z,1011.3
2017-09-05T07:22:31.619Z,1011.3
2017-09-05T07:23:34.058Z,1011.3
2017-09-05T07:24:36.482Z,1011.3
2017-09-05T07:25:38.919Z,1011.3
2017-09-05T07:26:41.345Z,1011.3
2017-09-05T07:27:43.770Z,1011.2
2017-09-05T07:28:46.543Z,1011.2
2017-09-05T07:29:48.974Z,1011.3
2017-09-05T07:30:51.402Z,1011.3
2017-09-05T07:31:53.829Z,1011.3
2017-09-05T07:32:56.265Z,1011.3
2017-09-05T07:33:58.723Z,1011.3
2017-09-05T07:35:01.128Z,1011.3
2017-09-05T07:36:03.565Z,1011.3
2017-09-05T07:37:05.997Z,1011.2
2017-09-05T07:38:08.432Z,1011.3
2017-09-05T07:39:10.872Z,1011.3
2017-09-05T07:40:13.288Z,1011.3
2017-09-05T07:41:15.717Z,1011.3
2017-09-05T07:42:18.150Z,1011.3
2017-09-05T07:43:20.579Z,1011.3
2017-09-05T07:44:23.007Z,1011.3
2017-09-05T07:45:25.443Z,1011.3
2017-09-05T07:46:27.873Z,1011.3
2017-09-05T07:47:30.303Z,1011.3
2017-09-05T07:48:32.740Z,1011.3
2017-09-05T07:49:35.160Z,1011.3
2017-09-05T07:50:37.589Z,1011.3
2017-09-05T07:51:40.036Z,1011.3
2017-09-05T07:52:42.463Z,1011.3
2017-09-05T07:53:44.897Z,1011.3
2017-09-05T07:54:47.326Z,1011.3
2017-09-05T07:55:49.753Z,1011.3
2017-09-05T07:56:52.191Z,1011.2
2017-09-05T07:57:54.623Z,1011.2
2017-09-05T07:58:57.045Z,1011.2
2017-09-05T07:59:59.480Z,1011.2
2017-09-05T08:01:01.912Z,1011.2
2017-09-05T08:02:04.347Z,1011.2
2017-09-05T08:03:06.777Z,1011.3
2017-09-05T08:04:09.214Z,1011.2
2017-09-05T08:05:11.652Z,1011.2
2017-09-05T08:06:14.417Z,1011.2
2017-09-05T08:07:16.845Z,1011.2
2017-09-05T08:08:19.278Z,1011.2
2017-09-05T08:09:21.706Z,1011.2
2017-09-05T08:10:24.137Z,1011.2
2017-09-05T08:11:26.570Z,1011.2
2017-09-05T08:12:28.998Z,1011.2
2017-09-05T08:13:31.443Z,1011.2
2017-09-05T08:14:33.874Z,1011.2
2017-09-05T08:15:36.307Z,1011.2
2017-09-05T08:16:38.747Z,1011.2
2017-09-05T08:17:41.177Z,1011.2
2017-09-05T08:18:43.614Z,1011.2
2017-09-05T08:19:46.048Z,1011.2
2017-09-05T08:20:48.484Z,1011.2
2017-09-05T08:21:50.909Z,1011.2
2017-09-05T08:22:53.356Z,1011.3
2017-09-05T08:23:55.783Z,1011.2
2017-09-05T08:24:58.587Z,1011.3
2017-09-05T08:26:01.012Z,1011.2
2017-09-05T08:27:03.447Z,1011.3
2017-09-05T08:28:06.225Z,1011.3
2017-09-05T08:29:08.663Z,1011.2
2017-09-05T08:30:11.094Z,1011.3
2017-09-05T08:31:13.534Z,1011.3
2017-09-05T08:32:15.970Z,1011.3
2017-09-05T08:33:18.409Z,1011.3
2017-09-05T08:34:20.840Z,1011.3
2017-09-05T08:35:23.276Z,1011.3
2017-09-05T08:36:25.711Z,1011.3
2017-09-05T08:37:28.137Z,1011.3
2017-09-05T08:38:30.917Z,1011.3
2017-09-05T08:39:33.346Z,1011.3
2017-09-05T08:40:35.784Z,1011.3
2017-09-05T08:41:38.565Z,1011.3
2017-09-05T08:42:41.004Z,1011.3
2017-09-05T08:43:43.446Z,1011.3
2017-09-05T08:44:46.238Z,1011.3
2017-09-05T08:45:48.673Z,1011.3
2017-09-05T08:46:51.122Z,1011.3
2017-09-05T08:47:53.556Z,1011.2
2017-09-05T08:48:55.990Z,1011.3
2017-09-05T08:49:58.423Z,1011.3
2017-09-05T08:51:00.861Z,1011.3
2017-09-05T08:52:03.300Z,1011.2
2017-09-05T08:53:05.738Z,1011.2
2017-09-05T08:54:08.173Z,1011.3
2017-09-05T08:55:10.615Z,1011.3
2017-09-05T08:56:13.087Z,1011.3
2017-09-05T08:57:15.506Z,1011.2
2017-09-05T08:58:18.306Z,1011.2
2017-09-05T08:59:20.748Z,1011.2
2017-09-05T09:00:23.184Z,1011.2
2017-09-05T09:01:25.631Z,1011.2
2017-09-05T09:02:28.075Z,1011.1
2017-09-05T09:03:30.505Z,1011.2
2017-09-05T09:04:32.952Z,1011.2
2017-09-05T09:05:35.393Z,1011.2
2017-09-05T09:06:38.218Z,1011.2
2017-09-05T09:07:40.665Z,1011.2
2017-09-05T09:08:43.110Z,1011.2
2017-09-05T09:09:45.554Z,1011.2
2017-09-05T09:10:48.352Z,1011.1
2017-09-05T09:11:50.795Z,1011.2
2017-09-05T09:12:53.234Z,1011.1
2017-09-05T09:13:55.682Z,1011.2
2017-09-05T09:14:58.129Z,1011.1
2017-09-05T09:16:00.571Z,1011.1
2017-09-05T09:17:03.022Z,1011.1
2017-09-05T09:18:05.462Z,1011.1
2017-09-05T09:19:07.904Z,1011.1
2017-09-05T09:20:10.354Z,1011.1
2017-09-05T09:21:13.144Z,1011.1
2017-09-05T09:22:15.590Z,1011.2
2017-09-05T09:23:18.044Z,1011.1
2017-09-05T09:24:20.869Z,1011.1
2017-09-05T09:25:23.486Z,1011.1
2017-09-05T09:26:25.932Z,1011.2
2017-09-05T09:27:28.720Z,1011.1
2017-09-05T09:28:31.165Z,1011.1
2017-09-05T09:29:33.615Z,1011.2
2017-09-05T09:30:36.402Z,1011.2
2017-09-05T09:31:38.853Z,1011.1
2017-09-05T09:32:41.298Z,1011.1
2017-09-05T09:33:43.750Z,1011.1
2017-09-05T09:34:46.196Z,1011
2017-09-05T09:35:48.638Z,1011.1
2017-09-05T09:36:51.103Z,1011
2017-09-05T09:37:53.546Z,1011
2017-09-05T09:38:56.000Z,1011
2017-09-05T09:39:58.454Z,1011
2017-09-05T09:41:00.899Z,1011
2017-09-05T09:42:03.345Z,1011
2017-09-05T09:43:05.795Z,1011
2017-09-05T09:44:08.240Z,1011
2017-09-05T09:45:11.056Z,1011
2017-09-05T09:46:13.498Z,1011
2017-09-05T09:47:15.942Z,1011
2017-09-05T09:48:18.398Z,1011
2017-09-05T09:49:20.846Z,1011
2017-09-05T09:50:23.294Z,1011
2017-09-05T09:51:25.737Z,1011
2017-09-05T09:52:28.182Z,1011
2017-09-05T09:53:30.646Z,1011
2017-09-05T09:54:33.102Z,1011
2017-09-05T09:55:35.535Z,1011
2017-09-05T09:56:37.986Z,1011
2017-09-05T09:57:40.433Z,1011
2017-09-05T09:58:42.889Z,1011
2017-09-05T09:59:45.334Z,1011
2017-09-05T10:00:47.794Z,1011
2017-09-05T10:01:50.233Z,1011
2017-09-05T10:02:52.680Z,1011
2017-09-05T10:03:55.128Z,1011
2017-09-05T10:04:57.571Z,1011
2017-09-05T10:06:00.017Z,1010.9
2017-09-05T10:07:02.470Z,1010.9
2017-09-05T10:08:04.911Z,1011
2017-09-05T10:09:07.362Z,1010.9
2017-09-05T10:10:09.809Z,1010.9
2017-09-05T10:11:12.260Z,1010.9
2017-09-05T10:12:15.072Z,1010.9
2017-09-05T10:13:17.871Z,1010.9
2017-09-05T10:14:20.653Z,1010.9
2017-09-05T10:15:23.107Z,1010.9
2017-09-05T10:16:25.552Z,1010.9
2017-09-05T10:17:27.997Z,1010.8
2017-09-05T10:18:30.445Z,1010.8
2017-09-05T10:19:33.237Z,1010.9
2017-09-05T10:20:35.691Z,1010.9
2017-09-05T10:21:38.135Z,1010.8
2017-09-05T10:22:40.922Z,1010.8
2017-09-05T10:23:43.367Z,1010.8
2017-09-05T10:24:45.815Z,1010.8
2017-09-05T10:25:48.260Z,1010.8
2017-09-05T10:26:50.702Z,1010.8
2017-09-05T10:27:53.488Z,1010.7
2017-09-05T10:28:55.952Z,1010.7
2017-09-05T10:29:58.393Z,1010.7
2017-09-05T10:31:00.843Z,1010.7
2017-09-05T10:32:03.292Z,1010.7
2017-09-05T10:33:06.089Z,1010.7
2017-09-05T10:34:08.528Z,1010.7
2017-09-05T10:35:10.979Z,1010.6
2017-09-05T10:36:13.439Z,1010.6
2017-09-05T10:37:15.884Z,1010.6
2017-09-05T10:38:18.338Z,1010.6
2017-09-05T10:39:20.785Z,1010.6
2017-09-05T10:40:23.233Z,1010.6
2017-09-05T10:41:25.689Z,1010.6
2017-09-05T10:42:28.140Z,1010.6
2017-09-05T10:43:30.581Z,1010.6
2017-09-05T10:44:33.375Z,1010.6
2017-09-05T10:45:35.831Z,1010.6
2017-09-05T10:46:38.278Z,1010.6
2017-09-05T10:47:40.727Z,1010.6
2017-09-05T10:48:43.171Z,1010.6
2017-09-05T10:49:45.621Z,1010.6
2017-09-05T10:50:48.074Z,1010.6
2017-09-05T10:51:50.520Z,1010.7
2017-09-05T10:52:52.970Z,1010.6
2017-09-05T10:53:55.426Z,1010.6
2017-09-05T10:54:57.873Z,1010.6
2017-09-05T10:56:00.324Z,1010.6
2017-09-05T10:57:02.769Z,1010.7
2017-09-05T10:58:05.566Z,1010.6
2017-09-05T10:59:08.360Z,1010.6
2017-09-05T11:00:10.806Z,1010.6
2017-09-05T11:01:13.258Z,1010.6
2017-09-05T11:02:15.718Z,1010.6
2017-09-05T11:03:18.519Z,1010.7
2017-09-05T11:04:20.963Z,1010.6
2017-09-05T11:05:23.415Z,1010.6
2017-09-05T11:06:25.861Z,1010.6
2017-09-05T11:07:28.309Z,1010.7
2017-09-05T11:08:30.768Z,1010.6
2017-09-05T11:09:33.206Z,1010.6
2017-09-05T11:10:35.656Z,1010.6
2017-09-05T11:11:38.120Z,1010.6
2017-09-05T11:12:40.568Z,1010.6
2017-09-05T11:13:43.021Z,1010.5
2017-09-05T11:14:45.465Z,1010.6
2017-09-05T11:15:47.912Z,1010.6
2017-09-05T11:16:50.377Z,1010.5
2017-09-05T11:17:52.833Z,1010.5
2017-09-05T11:18:55.273Z,1010.5
2017-09-05T11:19:57.729Z,1010.5
2017-09-05T11:21:00.177Z,1010.5
2017-09-05T11:22:02.977Z,1010.5
2017-09-05T11:23:05.423Z,1010.6
2017-09-05T11:24:07.862Z,1010.6
2017-09-05T11:25:10.310Z,1010.6
2017-09-05T11:26:12.767Z,1010.6
2017-09-05T11:27:15.266Z,1010.6
2017-09-05T11:28:17.714Z,1010.6
2017-09-05T11:29:20.166Z,1010.6
2017-09-05T11:30:22.621Z,1010.5
2017-09-05T11:31:25.065Z,1010.5
2017-09-05T11:32:27.512Z,1010.6
2017-09-05T11:33:29.963Z,1010.5
2017-09-05T11:34:32.426Z,1010.5
2017-09-05T11:35:34.872Z,1010.6
2017-09-05T11:36:37.328Z,1010.5
2017-09-05T11:37:39.782Z,1010.5
2017-09-05T11:38:42.238Z,1010.5
2017-09-05T11:39:44.688Z,1010.5
2017-09-05T11:40:47.143Z,1010.4
2017-09-05T11:41:49.584Z,1010.5
2017-09-05T11:42:52.045Z,1010.5
2017-09-05T11:43:54.491Z,1010.5
2017-09-05T11:44:56.940Z,1010.5
2017-09-05T11:45:59.392Z,1010.5
2017-09-05T11:47:01.839Z,1010.5
2017-09-05T11:48:04.288Z,1010.4
2017-09-05T11:49:06.748Z,1010.5
2017-09-05T11:50:09.197Z,1010.5
2017-09-05T11:51:11.648Z,1010.4
2017-09-05T11:52:14.104Z,1010.4
2017-09-05T11:53:16.553Z,1010.4
2017-09-05T11:54:19.005Z,1010.4
2017-09-05T11:55:21.459Z,1010.4
2017-09-05T11:56:23.904Z,1010.4
2017-09-05T11:57:26.358Z,1010.3
2017-09-05T11:58:28.803Z,1010.4
2017-09-05T11:59:31.253Z,1010.4
2017-09-05T12:00:33.704Z,1010.4
2017-09-05T12:01:36.147Z,1010.3
2017-09-05T12:02:38.599Z,1010.3
2017-09-05T12:03:41.049Z,1010.3
2017-09-05T12:04:43.504Z,1010.3
2017-09-05T12:05:45.982Z,1010.2
2017-09-05T12:06:48.442Z,1010.2
2017-09-05T12:07:51.247Z,1010.3
2017-09-05T12:08:53.693Z,1010.3
2017-09-05T12:09:56.482Z,1010.3
2017-09-05T12:10:58.933Z,1010.3
2017-09-05T12:12:01.383Z,1010.2
2017-09-05T12:13:03.837Z,1010.3
2017-09-05T12:14:06.277Z,1010.3
2017-09-05T12:15:08.734Z,1010.3
2017-09-05T12:16:11.182Z,1010.2
2017-09-05T12:17:13.636Z,1010.2
2017-09-05T12:18:16.087Z,1010.2
2017-09-05T12:19:18.538Z,1010.2
2017-09-05T12:20:20.984Z,1010.2
2017-09-05T12:21:23.449Z,1010.2
2017-09-05T12:22:25.891Z,1010.2
2017-09-05T12:23:28.693Z,1010.2
2017-09-05T12:24:31.481Z,1010.1
2017-09-05T12:25:33.937Z,1010.1
2017-09-05T12:26:36.387Z,1010.2
2017-09-05T12:27:38.832Z,1010.2
2017-09-05T12:28:41.293Z,1010.1
2017-09-05T12:29:44.084Z,1010.1
2017-09-05T12:30:46.533Z,1010.2
2017-09-05T12:31:48.984Z,1010.1
2017-09-05T12:32:51.782Z,1010.1
2017-09-05T12:33:54.236Z,1010.1
2017-09-05T12:34:56.681Z,1010.1
2017-09-05T12:35:59.127Z,1010.1
2017-09-05T12:37:01.577Z,1010.1
2017-09-05T12:38:04.021Z,1010.1
2017-09-05T12:39:06.469Z,1010.1
2017-09-05T12:40:08.913Z,1010.1
2017-09-05T12:41:11.358Z,1010.1
2017-09-05T12:42:13.821Z,1010.2
2017-09-05T12:43:16.271Z,1010.1
2017-09-05T12:44:18.736Z,1010.1
2017-09-05T12:45:21.178Z,1010.1
2017-09-05T12:46:23.622Z,1010.1
2017-09-05T12:47:26.083Z,1010.1
2017-09-05T12:48:28.534Z,1010.1
2017-09-05T12:49:30.978Z,1010.2
2017-09-05T12:50:33.431Z,1010.1
2017-09-05T12:51:35.876Z,1010.1
2017-09-05T12:52:38.323Z,1010.1
2017-09-05T12:53:40.775Z,1010.1
2017-09-05T12:54:43.217Z,1010.1
2017-09-05T12:55:45.664Z,1010.1
2017-09-05T12:56:48.120Z,1010.1
2017-09-05T12:57:50.557Z,1010.1
2017-09-05T12:58:53.018Z,1010.1
2017-09-05T12:59:55.462Z,1010.1
2017-09-05T13:00:58.256Z,1010
2017-09-05T13:02:00.697Z,1010
2017-09-05T13:03:03.146Z,1010.1
2017-09-05T13:04:05.944Z,1010
2017-09-05T13:05:08.394Z,1010.1